Time;durP1;ratioP1;P1;durP2;ratioP2;P2;SDS_P1;SDS_P2;PMS_P1;PMS_P2;Temp;Humidity;BMP_temperature;BMP_pressure;BME280_temperature;BME280_humidity;BME280_pressure;Samples;Min_cycle;Max_cycle;Signal;HPM_P1;HPM_P2
2021/08/05 00:00:26;;;;;;;13.30;7.70;;;;;;;12.89;77.59;98601.23;2176643;82;20944;-82
2021/08/05 00:03:28;;;;;;;10.13;8.30;;;;;;;12.82;77.38;98599.05;2147283;82;20893;-82
2021/08/05 00:06:29;;;;;;;10.03;8.35;;;;;;;12.81;77.69;98603.86;2176347;82;20948;-83
2021/08/05 00:09:29;;;;;;;8.85;7.80;;;;;;;12.86;78.06;98606.04;2176078;82;20936;-82
2021/08/05 00:12:30;;;;;;;10.95;7.78;;;;;;;12.84;78.05;98588.14;2176532;82;21268;-82
2021/08/05 00:15:31;;;;;;;14.80;8.28;;;;;;;12.85;78.05;98586.39;2169003;82;21020;-82
2021/08/05 00:18:32;;;;;;;8.23;7.42;;;;;;;12.85;78.24;98585.95;2156426;83;20933;-82
2021/08/05 00:21:32;;;;;;;9.33;7.75;;;;;;;12.86;78.23;98582.46;2156661;83;20965;-82
2021/08/05 00:24:33;;;;;;;9.55;7.58;;;;;;;12.91;78.56;98575.47;2156394;83;20917;-82
2021/08/05 00:27:33;;;;;;;12.30;7.60;;;;;;;13.01;78.84;98577.66;2156374;83;20969;-81
2021/08/05 00:30:34;;;;;;;12.03;7.60;;;;;;;13.04;78.55;98571.98;2156631;83;20898;-82
2021/08/05 00:33:34;;;;;;;9.18;7.95;;;;;;;13.10;78.69;98568.47;2156373;83;20945;-82
2021/08/05 00:36:35;;;;;;;11.78;8.08;;;;;;;13.17;78.88;98562.81;2156497;82;21325;-82
2021/08/05 00:39:35;;;;;;;10.95;9.50;;;;;;;13.19;78.84;98557.99;2156407;82;20961;-81
2021/08/05 00:42:36;;;;;;;9.60;8.60;;;;;;;13.21;78.90;98551.00;2156727;83;20921;-81
2021/08/05 00:45:36;;;;;;;15.50;8.28;;;;;;;13.24;78.90;98548.37;2156023;83;20960;-81
2021/08/05 00:48:37;;;;;;;13.32;8.28;;;;;;;13.25;78.88;98542.69;2156310;82;21308;-81
2021/08/05 00:51:37;;;;;;;11.15;8.53;;;;;;;13.26;79.05;98540.50;2156412;83;21316;-82
2021/08/05 00:54:38;;;;;;;9.18;8.23;;;;;;;13.27;79.10;98530.45;2156479;83;20921;-82
2021/08/05 00:57:38;;;;;;;11.93;8.25;;;;;;;13.28;79.11;98537.44;2156899;83;20909;-81
2021/08/05 01:00:39;;;;;;;24.77;21.23;;;;;;;13.46;83.10;98530.80;2157906;82;20952;-83
2021/08/05 01:03:39;;;;;;;11.75;7.95;;;;;;;14.70;83.14;98527.34;2156639;83;20902;-81
2021/08/05 01:06:40;;;;;;;13.55;7.85;;;;;;;15.14;77.86;98525.59;2156242;83;20925;-81
2021/08/05 01:09:41;;;;;;;9.13;7.53;;;;;;;14.73;76.39;98528.63;2156228;83;20957;-81
2021/08/05 01:12:42;;;;;;;9.03;7.62;;;;;;;14.40;76.50;98536.34;2156169;83;20921;-81
2021/08/05 01:15:42;;;;;;;12.82;7.05;;;;;;;14.21;76.78;98531.68;2162125;82;21035;-81
2021/08/05 01:18:43;;;;;;;10.80;6.90;;;;;;;14.09;77.09;98539.64;2176229;82;21296;-81
2021/08/05 01:21:44;;;;;;;14.43;8.33;;;;;;;14.00;77.51;98533.58;2176271;82;21341;-82
2021/08/05 01:24:44;;;;;;;10.72;8.40;;;;;;;13.98;77.81;98529.22;2176111;82;20952;-81
2021/08/05 01:27:45;;;;;;;11.75;7.83;;;;;;;13.99;78.11;98534.45;2176476;82;20905;-81
2021/08/05 01:30:45;;;;;;;15.95;9.83;;;;;;;14.01;78.14;98536.63;2176436;82;20948;-82
2021/08/05 01:33:46;;;;;;;12.47;7.62;;;;;;;14.02;78.34;98533.12;2176213;82;20881;-81
2021/08/05 01:36:46;;;;;;;11.90;9.38;;;;;;;14.03;78.33;98537.49;2176111;82;20916;-81
2021/08/05 01:39:47;;;;;;;19.98;9.43;;;;;;;14.01;78.46;98526.14;2176683;82;21348;-81
2021/08/05 01:42:47;;;;;;;14.78;7.78;;;;;;;14.02;78.61;98513.88;2176640;82;20956;-82
2021/08/05 01:45:48;;;;;;;11.63;7.87;;;;;;;13.98;78.57;98514.34;2176406;82;20972;-82
2021/08/05 01:48:48;;;;;;;9.05;7.67;;;;;;;13.92;78.58;98499.95;2176386;82;20947;-82
2021/08/05 01:51:49;;;;;;;18.82;9.20;;;;;;;13.88;78.76;98494.30;2176559;82;20968;-82
2021/08/05 01:54:49;;;;;;;14.15;10.65;;;;;;;13.87;79.23;98495.19;2176258;82;21289;-81
2021/08/05 01:57:49;;;;;;;19.23;10.58;;;;;;;13.92;79.64;98488.15;2176911;82;21281;-82
2021/08/05 02:00:50;;;;;;;21.68;10.23;;;;;;;13.96;79.71;98483.31;2177820;82;20961;-82
2021/08/05 02:03:51;;;;;;;90.70;15.45;;;;;;;14.00;79.83;98473.22;2176705;82;20944;-83
2021/08/05 02:06:51;;;;;;;14.30;9.08;;;;;;;14.04;80.02;98471.44;2176021;82;20948;-81
2021/08/05 02:09:51;;;;;;;13.32;8.65;;;;;;;14.06;80.12;98468.36;2176188;82;20917;-81
2021/08/05 02:12:52;;;;;;;17.65;10.45;;;;;;;14.06;80.09;98472.74;2176790;82;20916;-81
2021/08/05 02:15:52;;;;;;;14.35;9.50;;;;;;;14.09;80.48;98481.91;2170380;82;20996;-81
2021/08/05 02:18:53;;;;;;;11.40;9.25;;;;;;;14.13;80.30;98475.75;2156376;83;21322;-80
2021/08/05 02:21:54;;;;;;;18.80;10.65;;;;;;;14.10;80.08;98477.08;2155985;82;20889;-80
2021/08/05 02:24:54;;;;;;;14.07;10.68;;;;;;;14.10;80.31;98477.95;2156076;82;20944;-81
2021/08/05 02:27:55;;;;;;;33.40;11.65;;;;;;;14.10;80.40;98463.96;2156804;82;20930;-81
2021/08/05 02:30:55;;;;;;;14.40;10.25;;;;;;;14.12;81.13;98468.76;2156129;82;20917;-81
2021/08/05 02:33:56;;;;;;;16.65;11.30;;;;;;;14.18;81.12;98464.33;2156628;83;20905;-82
2021/08/05 02:36:56;;;;;;;15.75;10.30;;;;;;;14.25;81.46;98463.39;2156227;83;20934;-82
2021/08/05 02:39:57;;;;;;;19.85;10.60;;;;;;;14.32;81.55;98471.64;2156316;82;20960;-82
2021/08/05 02:42:57;;;;;;;14.20;9.38;;;;;;;14.33;81.10;98464.62;2156386;83;20949;-82
2021/08/05 02:45:58;;;;;;;15.63;9.28;;;;;;;14.30;80.67;98469.91;2156062;83;21019;-78
2021/08/05 02:48:58;;;;;;;22.30;10.70;;;;;;;14.24;80.72;98476.08;2156022;82;20937;-81
2021/08/05 02:51:59;;;;;;;12.55;8.40;;;;;;;14.26;81.21;98477.38;2156164;83;20905;-82
2021/08/05 02:54:59;;;;;;;11.93;8.90;;;;;;;14.29;81.18;98481.30;2156226;82;21098;-81
2021/08/05 02:58:00;;;;;;;13.18;9.53;;;;;;;14.30;81.17;98485.66;2155896;83;20949;-82
2021/08/05 03:01:00;;;;;;;12.80;10.58;;;;;;;14.30;81.30;98486.97;2156377;83;20909;-82
2021/08/05 03:04:01;;;;;;;16.07;13.08;;;;;;;14.34;81.91;98490.00;2156306;83;20921;-82
2021/08/05 03:07:01;;;;;;;14.28;11.20;;;;;;;14.37;82.08;98483.41;2156513;83;20949;-82
2021/08/05 03:10:02;;;;;;;13.38;11.33;;;;;;;14.41;82.15;98481.63;2156486;83;20916;-82
2021/08/05 03:13:02;;;;;;;16.02;12.10;;;;;;;14.47;82.18;98486.85;2156271;83;21329;-82
2021/08/05 03:16:03;;;;;;;12.68;11.20;;;;;;;14.54;82.32;98483.28;2154857;82;21159;-83
2021/08/05 03:19:03;;;;;;;12.68;11.28;;;;;;;14.58;82.17;98483.23;2150538;83;20929;-83
2021/08/05 03:22:04;;;;;;;14.85;10.50;;;;;;;14.59;82.25;98481.48;2150636;83;20917;-82
2021/08/05 03:25:04;;;;;;;18.82;10.55;;;;;;;14.60;82.22;98486.72;2150694;83;21278;-82
2021/08/05 03:28:05;;;;;;;12.03;10.55;;;;;;;14.59;82.10;98484.98;2150875;83;20977;-82
2021/08/05 03:31:05;;;;;;;14.13;11.60;;;;;;;14.61;82.44;98485.84;2150698;83;20921;-82
2021/08/05 03:34:06;;;;;;;16.42;13.35;;;;;;;14.61;82.33;98488.46;2150452;83;21001;-81
2021/08/05 03:37:06;;;;;;;14.13;12.58;;;;;;;14.65;82.75;98483.60;2150538;83;20901;-81
2021/08/05 03:40:07;;;;;;;12.73;11.55;;;;;;;14.69;82.79;98482.26;2150513;83;20917;-82
2021/08/05 03:43:07;;;;;;;10.98;9.88;;;;;;;14.70;82.63;98476.98;2150554;83;20949;-82
2021/08/05 03:46:08;;;;;;;14.28;12.18;;;;;;;14.72;82.79;98487.03;2150184;83;21385;-82
2021/08/05 03:49:08;;;;;;;14.00;12.60;;;;;;;14.75;82.75;98478.28;2150763;83;20941;-82
2021/08/05 03:52:10;;;;;;;13.78;11.65;;;;;;;14.74;82.70;98473.89;2150446;83;20925;-83
2021/08/05 03:55:13;;;;;;;14.90;11.63;;;;;;;14.76;82.91;98474.33;2150479;83;20921;-80
2021/08/05 03:58:13;;;;;;;14.68;11.50;;;;;;;14.78;82.98;98475.63;2150558;83;20969;-83
2021/08/05 04:01:14;;;;;;;13.48;10.23;;;;;;;14.83;83.07;98481.70;2149690;83;20946;-82
2021/08/05 04:04:14;;;;;;;15.63;10.95;;;;;;;14.84;82.91;98482.13;2149847;83;20926;-83
2021/08/05 04:07:15;;;;;;;10.63;8.90;;;;;;;14.85;82.89;98483.87;2150359;83;20933;-83
2021/08/05 04:10:15;;;;;;;15.28;11.63;;;;;;;14.88;82.90;98475.95;2150554;83;20886;-83
2021/08/05 04:13:17;;;;;;;15.25;13.13;;;;;;;14.91;83.26;98471.53;2150465;83;20897;-82
2021/08/05 04:16:17;;;;;;;18.67;15.68;;;;;;;14.95;83.47;98474.55;2153512;82;21016;-82
2021/08/05 04:19:18;;;;;;;21.42;16.70;;;;;;;14.95;83.62;98478.48;2163213;82;20901;-82
2021/08/05 04:22:19;;;;;;;17.07;15.32;;;;;;;14.92;83.58;98471.09;2162760;82;20929;-83
2021/08/05 04:25:20;;;;;;;18.05;15.38;;;;;;;14.87;83.57;98460.63;2162999;82;21309;-83
2021/08/05 04:28:23;;;;;;;18.98;16.73;;;;;;;14.87;83.57;98460.63;2162901;82;21317;-84
2021/08/05 04:31:22;;;;;;;23.57;14.68;;;;;;;14.88;83.79;98461.05;2163184;82;21389;-82
2021/08/05 04:34:23;;;;;;;23.00;16.32;;;;;;;14.89;83.79;98451.41;2163226;82;20936;-80
2021/08/05 04:37:25;;;;;;;16.42;14.80;;;;;;;14.89;83.84;98440.91;2163227;82;20924;-83
2021/08/05 04:40:26;;;;;;;18.15;16.30;;;;;;;14.90;84.02;98434.76;2163201;82;20953;-83
2021/08/05 04:43:26;;;;;;;19.17;15.40;;;;;;;14.93;84.02;98422.45;2163197;82;20960;-82
2021/08/05 04:46:27;;;;;;;20.55;15.72;;;;;;;14.95;84.03;98414.10;2163273;82;20972;-82
2021/08/05 04:49:27;;;;;;;19.42;14.03;;;;;;;14.97;84.21;98416.72;2163128;82;20928;-83
2021/08/05 04:52:28;;;;;;;17.67;14.98;;;;;;;14.98;84.21;98405.31;2163138;82;20988;-82
2021/08/05 04:55:29;;;;;;;18.87;14.28;;;;;;;14.98;84.31;98398.30;2163482;82;20924;-82
2021/08/05 04:58:29;;;;;;;16.48;14.75;;;;;;;15.03;84.39;98403.94;2163076;82;20921;-81
2021/08/05 05:01:30;;;;;;;16.45;14.73;;;;;;;15.06;84.36;98408.71;2163337;82;20985;-81
2021/08/05 05:04:30;;;;;;;18.32;14.85;;;;;;;15.10;84.37;98402.52;2162382;82;20924;-82
2021/08/05 05:07:31;;;;;;;16.73;15.03;;;;;;;15.13;84.24;98405.11;2163162;82;20949;-81
2021/08/05 05:10:31;;;;;;;16.20;14.40;;;;;;;15.19;84.25;98401.53;2162745;82;20961;-81
2021/08/05 05:13:32;;;;;;;16.07;14.43;;;;;;;15.25;84.40;98404.08;2162645;82;20933;-81
2021/08/05 05:16:32;;;;;;;18.02;15.10;;;;;;;15.28;84.51;98404.91;2160907;82;21717;-82
2021/08/05 05:19:33;;;;;;;26.68;18.98;;;;;;;15.33;84.51;98400.89;2157007;83;20917;-81
2021/08/05 05:22:33;;;;;;;16.37;14.78;;;;;;;15.39;84.44;98395.55;2156821;83;20955;-81
2021/08/05 05:25:34;;;;;;;19.10;15.25;;;;;;;15.46;84.13;98395.01;2156170;82;21069;-81
2021/08/05 05:28:35;;;;;;;18.60;15.32;;;;;;;15.51;83.99;98386.16;2155724;82;20969;-81
2021/08/05 05:31:35;;;;;;;18.42;16.37;;;;;;;15.56;83.96;98387.40;2156643;83;21387;-81
2021/08/05 05:34:36;;;;;;;18.82;16.67;;;;;;;15.58;83.86;98380.39;2156582;83;20952;-81
2021/08/05 05:37:36;;;;;;;18.77;16.20;;;;;;;15.60;84.10;98380.81;2156380;82;20913;-81
2021/08/05 05:40:37;;;;;;;19.20;17.32;;;;;;;15.64;83.82;98386.90;2155346;83;21380;-81
2021/08/05 05:43:37;;;;;;;22.10;17.07;;;;;;;15.68;83.80;98384.64;2155162;82;20924;-81
2021/08/05 05:46:38;;;;;;;24.65;19.15;;;;;;;15.74;83.77;98385.86;2154922;83;20997;-81
2021/08/05 05:49:39;;;;;;;20.02;17.98;;;;;;;15.80;83.73;98380.95;2155616;83;21000;-81
2021/08/05 05:52:39;;;;;;;21.93;19.77;;;;;;;15.84;83.71;98378.23;2156211;82;20973;-81
2021/08/05 05:55:40;;;;;;;19.10;17.20;;;;;;;15.90;83.85;98372.88;2156409;82;21276;-82
2021/08/05 05:58:40;;;;;;;22.25;18.60;;;;;;;15.96;83.61;98367.95;2155995;82;21347;-79
2021/08/05 06:01:41;;;;;;;21.35;19.27;;;;;;;16.02;83.49;98374.42;2156085;83;20959;-81
2021/08/05 06:07:44;;;;;;;23.35;20.85;;;;;;;16.07;83.48;98365.13;2135628;83;20905;-80
2021/08/05 06:10:44;;;;;;;27.17;24.12;;;;;;;16.06;83.35;98360.76;2156493;82;20945;-81
2021/08/05 06:13:45;;;;;;;28.45;23.35;;;;;;;16.07;83.48;98355.47;2155524;83;20917;-79
2021/08/05 06:16:45;;;;;;;27.52;23.77;;;;;;;16.11;83.64;98357.59;2159726;82;20972;-80
2021/08/05 06:19:46;;;;;;;26.68;23.83;;;;;;;16.16;83.54;98363.20;2175890;82;20932;-80
2021/08/05 06:22:47;;;;;;;59.73;53.25;;;;;;;16.21;83.42;98369.70;2175603;82;21304;-81
2021/08/05 06:25:48;;;;;;;32.78;29.15;;;;;;;16.22;83.34;98368.80;2175761;82;20924;-81
2021/08/05 06:28:49;;;;;;;29.42;26.05;;;;;;;16.28;83.33;98367.38;2175770;82;21319;-80
2021/08/05 06:31:49;;;;;;;27.87;24.98;;;;;;;16.33;83.17;98351.03;2174946;82;21276;-82
2021/08/05 06:34:49;;;;;;;28.40;24.60;;;;;;;16.36;83.10;98343.08;2175844;82;20920;-82
2021/08/05 06:37:50;;;;;;;26.02;23.22;;;;;;;16.41;83.14;98336.40;2176008;82;20921;-81
2021/08/05 06:40:51;;;;;;;25.65;21.23;;;;;;;16.47;83.00;98342.86;2175184;82;20993;-82
2021/08/05 06:43:52;;;;;;;28.25;25.43;;;;;;;16.53;83.19;98354.19;2175501;82;20897;-81
2021/08/05 06:46:52;;;;;;;26.75;24.05;;;;;;;16.61;83.08;98347.44;2175080;82;21372;-81
2021/08/05 06:49:52;;;;;;;26.48;23.70;;;;;;;16.69;82.83;98338.09;2175697;82;20916;-82
2021/08/05 06:52:53;;;;;;;26.65;23.25;;;;;;;16.72;82.45;98332.31;2176070;82;20928;-81
2021/08/05 06:55:54;;;;;;;26.87;24.05;;;;;;;16.81;82.36;98332.56;2175937;82;20932;-81
2021/08/05 06:58:54;;;;;;;24.75;22.35;;;;;;;16.87;82.34;98332.44;2176454;82;20972;-82
2021/08/05 07:01:55;;;;;;;26.27;22.67;;;;;;;16.97;82.23;98335.29;2177548;82;20955;-82
2021/08/05 07:05:01;;;;;;;24.60;22.22;;;;;;;17.06;82.43;98339.04;2176077;82;20928;-81
2021/08/05 07:07:58;;;;;;;22.70;20.50;;;;;;;17.17;82.10;98337.03;2175086;82;20992;-82
2021/08/05 07:10:58;;;;;;;22.37;19.95;;;;;;;17.25;81.88;98330.27;2176136;82;20909;-81
2021/08/05 07:13:58;;;;;;;21.77;19.55;;;;;;;17.28;81.57;98331.96;2176221;82;21308;-82
2021/08/05 07:16:59;;;;;;;22.20;19.90;;;;;;;17.24;81.56;98339.53;2175826;82;21007;-82
2021/08/05 07:20:00;;;;;;;21.77;19.67;;;;;;;17.20;81.59;98339.60;2175836;82;20960;-81
2021/08/05 07:23:00;;;;;;;21.68;19.40;;;;;;;17.20;81.74;98339.60;2175978;82;20957;-81
2021/08/05 07:26:01;;;;;;;23.15;20.72;;;;;;;17.13;81.31;98335.37;2175645;82;20963;-82
2021/08/05 07:29:01;;;;;;;21.50;19.37;;;;;;;17.06;81.45;98323.22;2175315;82;21372;-82
2021/08/05 07:32:04;;;;;;;25.02;20.32;;;;;;;17.05;81.63;98329.40;2174852;82;20972;-81
2021/08/05 07:35:04;;;;;;;20.65;18.55;;;;;;;17.05;81.90;98333.35;2176113;82;20957;-83
2021/08/05 07:38:05;;;;;;;19.07;17.27;;;;;;;16.99;81.90;98329.53;2176339;82;20928;-81
2021/08/05 07:41:06;;;;;;;22.35;19.92;;;;;;;16.98;81.82;98316.38;2176582;82;20948;-81
2021/08/05 07:44:07;;;;;;;19.90;17.92;;;;;;;16.98;81.91;98317.25;2175695;82;20972;-81
2021/08/05 07:47:08;;;;;;;21.73;19.57;;;;;;;17.05;82.19;98315.34;2175517;82;20967;-82
2021/08/05 07:50:10;;;;;;;20.08;18.12;;;;;;;17.11;81.96;98313.44;2176145;82;21007;-81
2021/08/05 07:53:11;;;;;;;20.43;17.67;;;;;;;17.14;81.84;98306.77;2175948;81;20983;-82
2021/08/05 07:56:11;;;;;;;19.17;17.40;;;;;;;17.18;81.78;98301.84;2176161;82;20940;-82
2021/08/05 07:59:12;;;;;;;18.67;16.87;;;;;;;17.25;82.06;98305.66;2176223;82;21105;-82
2021/08/05 08:02:13;;;;;;;20.15;18.05;;;;;;;17.28;82.00;98314.37;2176138;82;20920;-82
2021/08/05 08:05:14;;;;;;;17.82;15.93;;;;;;;17.24;81.79;98306.11;2176486;82;20905;-82
2021/08/05 08:08:16;;;;;;;18.10;16.37;;;;;;;17.19;81.68;98302.27;2176409;82;21315;-82
2021/08/05 08:11:23;;;;;;;19.55;17.65;;;;;;;17.19;82.09;98297.44;2146613;82;20888;-82
2021/08/05 08:14:24;;;;;;;18.95;17.10;;;;;;;17.22;81.82;98299.14;2174384;82;20932;-81
2021/08/05 08:17:25;;;;;;;18.75;16.93;;;;;;;17.30;81.61;98295.87;2176222;82;21019;-82
2021/08/05 08:20:25;;;;;;;18.57;16.62;;;;;;;17.26;81.74;98287.16;2175877;82;21330;-82
2021/08/05 08:23:26;;;;;;;17.82;16.12;;;;;;;17.34;81.73;98293.56;2175793;82;20996;-82
2021/08/05 08:26:27;;;;;;;17.30;15.60;;;;;;;17.40;81.71;98293.00;2176119;82;20925;-81
2021/08/05 08:29:27;;;;;;;17.82;16.12;;;;;;;17.43;81.27;98291.61;2175068;82;20944;-82
2021/08/05 08:32:28;;;;;;;17.17;15.68;;;;;;;17.45;81.41;98291.13;2175756;82;20948;-80
2021/08/05 08:35:28;;;;;;;18.42;16.65;;;;;;;17.42;81.29;98287.69;2174921;82;21302;-82
2021/08/05 08:38:29;;;;;;;17.30;15.28;;;;;;;17.40;81.33;98289.50;2174829;82;20900;-80
2021/08/05 08:41:30;;;;;;;16.77;15.32;;;;;;;17.38;81.56;98289.53;2175456;82;20984;-82
2021/08/05 08:44:33;;;;;;;16.15;14.83;;;;;;;17.46;81.40;98290.66;2174984;82;20929;-81
2021/08/05 08:47:34;;;;;;;15.90;14.47;;;;;;;17.46;81.40;98290.66;2175395;82;21048;-81
2021/08/05 08:50:34;;;;;;;16.62;14.60;;;;;;;17.42;80.88;98294.28;2175794;82;20921;-81
2021/08/05 08:53:35;;;;;;;13.60;12.23;;;;;;;17.42;80.77;98294.28;2175826;82;20912;-81
2021/08/05 08:56:39;;;;;;;14.95;13.62;;;;;;;17.41;81.07;98296.05;2175822;82;20940;-80
2021/08/05 08:59:39;;;;;;;15.32;13.93;;;;;;;17.37;80.76;98289.13;2175372;82;20959;-81
2021/08/05 09:02:42;;;;;;;13.90;12.60;;;;;;;17.36;80.84;98291.80;2175670;82;20916;-81
2021/08/05 09:05:42;;;;;;;15.88;14.23;;;;;;;17.38;81.38;98299.22;2175973;82;20932;-82
2021/08/05 09:08:43;;;;;;;13.08;11.83;;;;;;;17.37;81.06;98297.03;2175521;82;20952;-81
2021/08/05 09:11:43;;;;;;;14.33;13.03;;;;;;;17.34;81.03;98297.53;2175796;82;20920;-82
2021/08/05 09:14:45;;;;;;;13.55;12.25;;;;;;;17.30;81.04;98303.78;2175284;82;20948;-81
2021/08/05 09:17:45;;;;;;;13.55;12.25;;;;;;;17.27;81.36;98298.12;2167962;82;21424;-81
2021/08/05 09:20:46;;;;;;;13.68;12.37;;;;;;;17.30;80.97;98294.09;2149905;83;20893;-81
2021/08/05 09:23:50;;;;;;;14.50;12.98;;;;;;;17.31;81.25;98293.64;2150251;83;20965;-82
2021/08/05 09:26:50;;;;;;;12.95;11.65;;;;;;;17.31;81.29;98283.09;2150130;83;20929;-81
2021/08/05 09:29:53;;;;;;;14.60;13.10;;;;;;;17.27;81.18;98286.70;2149251;83;20944;-81
2021/08/05 09:32:53;;;;;;;12.50;11.50;;;;;;;17.25;81.50;98285.42;2149255;83;20882;-82
2021/08/05 09:35:53;;;;;;;12.53;11.30;;;;;;;17.28;81.54;98281.84;2150097;83;20954;-82
2021/08/05 09:38:54;;;;;;;12.07;11.03;;;;;;;17.30;81.40;98282.67;2149905;83;20885;-81
2021/08/05 09:41:55;;;;;;;10.98;10.08;;;;;;;17.29;81.28;98279.63;2150433;83;20906;-82
2021/08/05 09:44:55;;;;;;;11.35;10.35;;;;;;;17.29;81.28;98279.63;2150238;83;20913;-82
2021/08/05 09:47:57;;;;;;;10.93;10.03;;;;;;;17.28;81.54;98276.13;2149651;83;21333;-81
2021/08/05 09:50:57;;;;;;;21.25;18.73;;;;;;;17.29;81.40;98273.03;2149098;83;20952;-80
2021/08/05 09:53:58;;;;;;;13.18;12.07;;;;;;;17.27;81.31;98268.24;2149562;83;20929;-81
2021/08/05 09:56:58;;;;;;;14.03;12.78;;;;;;;17.33;81.24;98274.23;2149067;83;20928;-81
2021/08/05 09:59:59;;;;;;;12.73;11.53;;;;;;;17.33;81.15;98270.73;2149943;83;20917;-81
2021/08/05 10:03:00;;;;;;;14.15;12.33;;;;;;;17.40;81.15;98269.71;2150079;83;20933;-81
2021/08/05 10:06:05;;;;;;;14.13;12.93;;;;;;;17.41;81.28;98267.03;2129400;83;21277;-82
2021/08/05 10:09:06;;;;;;;13.22;12.10;;;;;;;17.42;81.25;98262.17;2149739;83;20988;-81
2021/08/05 10:12:06;;;;;;;14.23;13.00;;;;;;;17.44;81.43;98258.18;2149995;83;20890;-82
2021/08/05 10:15:07;;;;;;;14.45;13.25;;;;;;;17.41;81.54;98254.30;2150330;83;21681;-81
2021/08/05 10:18:07;;;;;;;13.95;12.82;;;;;;;17.37;81.64;98250.87;2152270;82;20996;-80
2021/08/05 10:21:08;;;;;;;15.88;14.45;;;;;;;17.28;81.70;98248.87;2156340;83;20941;-81
2021/08/05 10:24:08;;;;;;;18.02;16.17;;;;;;;17.20;81.82;98247.29;2156120;83;20976;-82
2021/08/05 10:27:09;;;;;;;18.20;16.65;;;;;;;17.15;82.23;98250.94;2156130;83;20965;-81
2021/08/05 10:30:10;;;;;;;19.07;17.17;;;;;;;17.08;82.25;98238.36;2156358;82;20917;-82
2021/08/05 10:33:13;;;;;;;20.37;18.67;;;;;;;17.05;82.67;98237.56;2156441;83;20979;-82
2021/08/05 10:36:14;;;;;;;21.05;19.15;;;;;;;17.02;82.61;98229.27;2156488;82;21020;-82
2021/08/05 10:39:14;;;;;;;19.10;17.30;;;;;;;17.10;82.75;98219.86;2156522;82;20901;-82
2021/08/05 10:42:16;;;;;;;19.32;17.75;;;;;;;17.25;82.64;98218.62;2156295;83;20944;-82
2021/08/05 10:45:19;;;;;;;18.27;16.77;;;;;;;17.32;82.62;98210.52;2156675;83;20940;-82
2021/08/05 10:48:19;;;;;;;19.23;17.60;;;;;;;17.38;82.57;98207.75;2156258;82;21423;-80
2021/08/05 10:51:19;;;;;;;17.50;16.00;;;;;;;17.29;82.55;98208.41;2157186;83;21101;-82
2021/08/05 10:54:20;;;;;;;21.37;19.45;;;;;;;17.22;82.55;98197.14;2156246;83;20957;-79
2021/08/05 10:57:20;;;;;;;20.50;18.57;;;;;;;17.16;82.73;98199.48;2155948;83;21280;-82
2021/08/05 11:00:21;;;;;;;18.87;17.17;;;;;;;17.11;83.23;98198.73;2156627;83;20933;-81
2021/08/05 11:03:22;;;;;;;20.75;18.85;;;;;;;17.05;83.13;98188.33;2156558;83;20910;-80
2021/08/05 11:06:22;;;;;;;22.05;20.08;;;;;;;16.97;83.10;98188.97;2156892;83;20977;-80
2021/08/05 11:09:23;;;;;;;20.12;18.40;;;;;;;16.90;83.39;98190.02;2156696;83;20941;-80
2021/08/05 11:12:23;;;;;;;21.17;19.35;;;;;;;16.85;83.52;98183.99;2156623;83;20921;-81
2021/08/05 11:15:29;;;;;;;26.52;18.70;;;;;;;16.81;83.92;98179.70;2156825;83;20933;-80
2021/08/05 11:18:29;;;;;;;23.20;20.88;;;;;;;16.73;84.29;98173.73;2154249;82;21053;-81
2021/08/05 11:21:30;;;;;;;20.68;18.87;;;;;;;16.79;84.21;98169.64;2150536;83;20953;-81
2021/08/05 11:24:30;;;;;;;20.37;18.60;;;;;;;16.78;84.03;98160.00;2150908;83;20956;-83
2021/08/05 11:27:31;;;;;;;22.67;20.60;;;;;;;16.80;84.29;98148.52;2150448;83;21134;-81
2021/08/05 11:30:31;;;;;;;20.00;18.27;;;;;;;16.83;84.46;98147.13;2150709;83;20965;-81
2021/08/05 11:33:32;;;;;;;21.15;19.10;;;;;;;16.81;84.70;98145.43;2150769;83;20922;-81
2021/08/05 11:36:33;;;;;;;21.00;18.87;;;;;;;16.80;84.55;98143.70;2150971;83;20924;-81
2021/08/05 11:39:34;;;;;;;21.05;18.90;;;;;;;16.82;84.57;98135.30;2150782;83;20930;-82
2021/08/05 11:42:35;;;;;;;21.90;20.00;;;;;;;16.85;84.62;98120.73;2151029;83;20890;-81
2021/08/05 11:45:35;;;;;;;20.23;18.45;;;;;;;16.95;84.49;98120.92;2151298;82;20956;-82
2021/08/05 11:48:36;;;;;;;21.52;19.60;;;;;;;17.01;84.48;98114.62;2150665;83;20957;-81
2021/08/05 11:51:37;;;;;;;21.52;19.42;;;;;;;17.06;84.25;98108.33;2149763;83;20928;-81
2021/08/05 11:54:37;;;;;;;18.98;17.30;;;;;;;17.15;84.29;98109.41;2149671;83;20908;-81
2021/08/05 11:57:38;;;;;;;17.73;15.30;;;;;;;17.22;84.09;98104.84;2150323;83;20913;-81
2021/08/05 12:00:42;;;;;;;18.95;17.32;;;;;;;17.20;83.92;98102.23;2150672;83;21281;-83
2021/08/05 12:03:44;;;;;;;17.17;15.78;;;;;;;17.18;83.97;98102.73;2150734;83;20977;-82
2021/08/05 12:06:44;;;;;;;16.02;14.33;;;;;;;17.15;84.20;98088.31;2149885;83;21004;-81
2021/08/05 12:09:45;;;;;;;17.35;15.78;;;;;;;17.15;84.06;98088.31;2149810;83;20933;-81
2021/08/05 12:12:45;;;;;;;15.43;13.88;;;;;;;17.18;84.17;98074.17;2149526;83;20909;-80
2021/08/05 12:15:46;;;;;;;15.60;14.15;;;;;;;17.21;84.01;98066.18;2148732;83;20953;-81
2021/08/05 12:18:47;;;;;;;15.00;13.70;;;;;;;17.28;83.68;98061.61;2151013;82;21704;-80
2021/08/05 12:21:47;;;;;;;13.00;11.90;;;;;;;17.36;83.70;98053.06;2155261;83;20925;-81
2021/08/05 12:24:51;;;;;;;15.00;13.70;;;;;;;17.36;83.70;98053.06;2155149;82;20957;-80
2021/08/05 12:27:50;;;;;;;13.62;12.47;;;;;;;17.39;83.76;98048.56;2155842;82;21348;-82
2021/08/05 12:30:51;;;;;;;13.60;12.50;;;;;;;17.39;83.60;98046.38;2155401;83;20929;-81
2021/08/05 12:33:52;;;;;;;11.33;10.40;;;;;;;17.35;83.76;98052.20;2156091;82;20961;-82
2021/08/05 12:36:53;;;;;;;11.08;10.08;;;;;;;17.22;83.40;98036.72;2156380;82;20960;-81
2021/08/05 12:39:53;;;;;;;10.23;9.33;;;;;;;17.22;83.40;98036.72;2155584;83;20933;-82
2021/08/05 12:42:53;;;;;;;8.23;7.45;;;;;;;17.26;83.61;98029.14;2155514;83;20901;-82
2021/08/05 12:45:54;;;;;;;9.33;7.50;;;;;;;17.26;83.16;98032.64;2155628;83;20925;-82
2021/08/05 12:48:55;;;;;;;9.35;8.63;;;;;;;17.25;83.43;98025.63;2155955;83;20988;-82
2021/08/05 12:51:55;;;;;;;9.43;7.83;;;;;;;17.27;83.58;98025.14;2156412;83;20928;-80
2021/08/05 12:54:56;;;;;;;7.35;6.75;;;;;;;17.28;83.40;98026.86;2156142;82;20945;-83
2021/08/05 13:00:59;;;;;;;7.50;6.25;;;;;;;17.27;83.40;98019.00;2135598;83;20929;-81
2021/08/05 13:04:01;;;;;;;6.58;6.08;;;;;;;17.25;83.30;98019.49;2155618;83;20964;-81
2021/08/05 13:07:02;;;;;;;6.45;5.85;;;;;;;17.22;83.23;98024.85;2155450;83;20909;-82
2021/08/05 13:10:02;;;;;;;6.40;5.85;;;;;;;17.17;83.32;98023.20;2155145;83;20951;-81
2021/08/05 13:13:03;;;;;;;6.15;5.65;;;;;;;17.14;83.54;98023.30;2154617;83;20921;-81
2021/08/05 13:16:03;;;;;;;6.85;6.17;;;;;;;17.08;83.68;98020.82;2154821;82;21382;-83
2021/08/05 13:19:04;;;;;;;5.05;4.55;;;;;;;17.02;83.54;98010.45;2162295;82;21734;-83
2021/08/05 13:22:04;;;;;;;6.53;5.92;;;;;;;16.97;83.83;98012.34;2175606;82;20925;-82
2021/08/05 13:25:05;;;;;;;5.70;5.20;;;;;;;16.89;83.87;98005.09;2175254;82;20959;-82
2021/08/05 13:28:06;;;;;;;7.42;5.45;;;;;;;16.86;84.02;98000.77;2175610;82;21020;-81
2021/08/05 13:31:06;;;;;;;5.50;5.10;;;;;;;16.88;84.15;98002.05;2175876;82;20912;-83
2021/08/05 13:34:07;;;;;;;5.83;5.33;;;;;;;16.85;84.10;98000.80;2175153;82;20955;-83
2021/08/05 13:37:08;;;;;;;7.05;6.00;;;;;;;16.81;84.39;98006.61;2175937;82;20932;-83
2021/08/05 13:40:08;;;;;;;6.15;5.60;;;;;;;16.73;84.35;97995.86;2175807;82;20951;-82
2021/08/05 13:43:09;;;;;;;7.08;6.40;;;;;;;16.71;84.60;97987.13;2176153;82;21028;-83
2021/08/05 13:46:10;;;;;;;9.65;8.65;;;;;;;16.65;84.96;97973.66;2176321;82;21012;-82
2021/08/05 13:49:10;;;;;;;15.88;14.33;;;;;;;16.61;85.10;97968.48;2175901;82;21043;-82
2021/08/05 13:52:11;;;;;;;12.70;11.48;;;;;;;16.61;85.11;97961.89;2175753;82;21276;-82
2021/08/05 13:55:11;;;;;;;10.30;7.47;;;;;;;16.56;85.50;97958.93;2176313;82;20905;-82
2021/08/05 13:58:12;;;;;;;6.10;5.53;;;;;;;16.54;85.41;97954.60;2176392;82;20925;-83